sensor_id;sensor_type;location;lat;lon;timestamp;P1;durP1;ratioP1;P2;durP2;ratioP2
68523;SDS011;55524;51.380;13.372;2022-12-15T00:03:06;34.83;;;12.32;;
68523;SDS011;55524;51.380;13.372;2022-12-15T00:05:53;40.92;;;13.82;;
68523;SDS011;55524;51.380;13.372;2022-12-15T00:08:38;36.95;;;12.30;;
68523;SDS011;55524;51.380;13.372;2022-12-15T00:11:32;41.00;;;12.73;;
68523;SDS011;55524;51.380;13.372;2022-12-15T00:14:26;37.05;;;13.18;;
68523;SDS011;55524;51.380;13.372;2022-12-15T00:17:23;33.30;;;11.57;;
68523;SDS011;55524;51.380;13.372;2022-12-15T00:20:27;36.38;;;12.82;;
68523;SDS011;55524;51.380;13.372;2022-12-15T00:23:15;38.67;;;13.18;;
68523;SDS011;55524;51.380;13.372;2022-12-15T00:26:18;32.70;;;13.05;;
68523;SDS011;55524;51.380;13.372;2022-12-15T00:29:06;36.65;;;13.60;;
68523;SDS011;55524;51.380;13.372;2022-12-15T00:32:00;34.35;;;12.15;;
68523;SDS011;55524;51.380;13.372;2022-12-15T00:35:05;35.97;;;12.35;;
68523;SDS011;55524;51.380;13.372;2022-12-15T00:38:05;30.73;;;11.98;;
68523;SDS011;55524;51.380;13.372;2022-12-15T00:40:55;38.08;;;13.00;;
68523;SDS011;55524;51.380;13.372;2022-12-15T00:43:42;34.90;;;12.60;;
68523;SDS011;55524;51.380;13.372;2022-12-15T00:46:38;31.35;;;12.43;;
68523;SDS011;55524;51.380;13.372;2022-12-15T00:49:39;33.22;;;12.48;;
68523;SDS011;55524;51.380;13.372;2022-12-15T00:52:47;33.00;;;12.30;;
68523;SDS011;55524;51.380;13.372;2022-12-15T00:55:37;37.63;;;12.65;;
68523;SDS011;55524;51.380;13.372;2022-12-15T00:58:34;33.92;;;10.93;;
68523;SDS011;55524;51.380;13.372;2022-12-15T01:01:48;33.08;;;12.35;;
68523;SDS011;55524;51.380;13.372;2022-12-15T01:04:35;36.55;;;12.60;;
68523;SDS011;55524;51.380;13.372;2022-12-15T01:07:29;37.55;;;12.70;;
68523;SDS011;55524;51.380;13.372;2022-12-15T01:10:23;38.15;;;12.50;;
68523;SDS011;55524;51.380;13.372;2022-12-15T01:13:11;32.92;;;12.40;;
68523;SDS011;55524;51.380;13.372;2022-12-15T01:15:55;30.10;;;12.35;;
68523;SDS011;55524;51.380;13.372;2022-12-15T01:18:51;39.30;;;13.00;;
68523;SDS011;55524;51.380;13.372;2022-12-15T01:21:56;39.72;;;13.45;;
68523;SDS011;55524;51.380;13.372;2022-12-15T01:24:55;40.90;;;13.25;;
68523;SDS011;55524;51.380;13.372;2022-12-15T01:27:42;28.35;;;11.05;;
68523;SDS011;55524;51.380;13.372;2022-12-15T01:30:35;33.25;;;11.55;;
68523;SDS011;55524;51.380;13.372;2022-12-15T01:33:10;36.60;;;11.80;;
68523;SDS011;55524;51.380;13.372;2022-12-15T01:36:17;30.25;;;11.07;;
68523;SDS011;55524;51.380;13.372;2022-12-15T01:38:57;34.05;;;12.63;;
68523;SDS011;55524;51.380;13.372;2022-12-15T01:41:46;34.88;;;12.63;;
68523;SDS011;55524;51.380;13.372;2022-12-15T01:44:36;34.17;;;11.63;;
68523;SDS011;55524;51.380;13.372;2022-12-15T01:47:22;36.20;;;12.52;;
68523;SDS011;55524;51.380;13.372;2022-12-15T01:49:56;38.15;;;12.15;;
68523;SDS011;55524;51.380;13.372;2022-12-15T01:52:22;34.35;;;11.63;;
68523;SDS011;55524;51.380;13.372;2022-12-15T01:54:52;34.05;;;11.57;;
68523;SDS011;55524;51.380;13.372;2022-12-15T01:57:47;30.40;;;11.43;;
68523;SDS011;55524;51.380;13.372;2022-12-15T02:00:32;36.83;;;12.10;;
68523;SDS011;55524;51.380;13.372;2022-12-15T02:03:35;29.17;;;11.20;;
68523;SDS011;55524;51.380;13.372;2022-12-15T02:06:14;35.30;;;12.70;;
68523;SDS011;55524;51.380;13.372;2022-12-15T02:08:51;34.08;;;11.50;;
68523;SDS011;55524;51.380;13.372;2022-12-15T02:14:05;40.72;;;12.43;;
68523;SDS011;55524;51.380;13.372;2022-12-15T02:19:43;35.00;;;11.90;;
68523;SDS011;55524;51.380;13.372;2022-12-15T02:28:59;32.15;;;11.98;;
68523;SDS011;55524;51.380;13.372;2022-12-15T02:37:19;33.85;;;11.70;;
68523;SDS011;55524;51.380;13.372;2022-12-15T02:40:03;35.72;;;12.02;;
68523;SDS011;55524;51.380;13.372;2022-12-15T02:42:31;29.88;;;11.23;;
68523;SDS011;55524;51.380;13.372;2022-12-15T02:45:02;34.65;;;11.70;;
68523;SDS011;55524;51.380;13.372;2022-12-15T02:47:37;33.58;;;11.95;;
68523;SDS011;55524;51.380;13.372;2022-12-15T02:53:18;27.17;;;10.68;;
68523;SDS011;55524;51.380;13.372;2022-12-15T02:56:16;35.45;;;11.13;;
68523;SDS011;55524;51.380;13.372;2022-12-15T03:01:36;30.48;;;10.95;;
68523;SDS011;55524;51.380;13.372;2022-12-15T03:04:17;33.47;;;10.60;;
68523;SDS011;55524;51.380;13.372;2022-12-15T03:06:44;30.23;;;11.43;;
68523;SDS011;55524;51.380;13.372;2022-12-15T03:09:17;32.15;;;11.80;;
68523;SDS011;55524;51.380;13.372;2022-12-15T03:11:43;30.77;;;10.27;;
68523;SDS011;55524;51.380;13.372;2022-12-15T03:14:09;29.83;;;10.75;;
68523;SDS011;55524;51.380;13.372;2022-12-15T03:16:36;35.50;;;11.68;;
68523;SDS011;55524;51.380;13.372;2022-12-15T03:19:02;34.75;;;12.35;;
68523;SDS011;55524;51.380;13.372;2022-12-15T03:21:28;27.27;;;10.07;;
68523;SDS011;55524;51.380;13.372;2022-12-15T03:23:54;34.63;;;11.63;;
68523;SDS011;55524;51.380;13.372;2022-12-15T03:26:20;27.50;;;11.43;;
68523;SDS011;55524;51.380;13.372;2022-12-15T03:28:47;34.05;;;13.27;;
68523;SDS011;55524;51.380;13.372;2022-12-15T03:31:13;40.47;;;13.27;;
68523;SDS011;55524;51.380;13.372;2022-12-15T03:33:39;42.47;;;11.27;;
68523;SDS011;55524;51.380;13.372;2022-12-15T03:36:05;39.20;;;11.95;;
68523;SDS011;55524;51.380;13.372;2022-12-15T03:38:32;41.03;;;12.90;;
68523;SDS011;55524;51.380;13.372;2022-12-15T03:40:58;35.28;;;11.57;;
68523;SDS011;55524;51.380;13.372;2022-12-15T03:43:24;28.70;;;11.48;;
68523;SDS011;55524;51.380;13.372;2022-12-15T03:45:51;38.08;;;12.75;;
68523;SDS011;55524;51.380;13.372;2022-12-15T03:48:17;34.25;;;11.43;;
68523;SDS011;55524;51.380;13.372;2022-12-15T03:50:43;36.50;;;11.40;;
68523;SDS011;55524;51.380;13.372;2022-12-15T03:53:11;34.58;;;10.85;;
68523;SDS011;55524;51.380;13.372;2022-12-15T03:55:38;33.53;;;10.82;;
68523;SDS011;55524;51.380;13.372;2022-12-15T03:58:04;34.55;;;11.40;;
68523;SDS011;55524;51.380;13.372;2022-12-15T04:00:30;32.83;;;10.70;;
68523;SDS011;55524;51.380;13.372;2022-12-15T04:02:57;37.67;;;10.77;;
68523;SDS011;55524;51.380;13.372;2022-12-15T04:05:30;30.50;;;11.52;;
68523;SDS011;55524;51.380;13.372;2022-12-15T04:07:58;38.95;;;10.65;;
68523;SDS011;55524;51.380;13.372;2022-12-15T04:10:27;30.70;;;9.85;;
68523;SDS011;55524;51.380;13.372;2022-12-15T04:12:55;30.25;;;10.65;;
68523;SDS011;55524;51.380;13.372;2022-12-15T04:15:22;43.58;;;11.43;;
68523;SDS011;55524;51.380;13.372;2022-12-15T04:17:49;28.95;;;10.02;;
68523;SDS011;55524;51.380;13.372;2022-12-15T04:20:15;29.63;;;9.05;;
68523;SDS011;55524;51.380;13.372;2022-12-15T04:22:42;32.22;;;9.00;;
68523;SDS011;55524;51.380;13.372;2022-12-15T04:25:11;28.45;;;9.32;;
68523;SDS011;55524;51.380;13.372;2022-12-15T04:28:00;30.13;;;9.25;;
68523;SDS011;55524;51.380;13.372;2022-12-15T04:30:46;25.17;;;9.45;;
68523;SDS011;55524;51.380;13.372;2022-12-15T04:36:22;30.45;;;9.68;;
68523;SDS011;55524;51.380;13.372;2022-12-15T04:39:07;33.95;;;9.77;;
68523;SDS011;55524;51.380;13.372;2022-12-15T04:41:53;23.48;;;9.32;;
68523;SDS011;55524;51.380;13.372;2022-12-15T04:44:40;23.23;;;9.18;;
68523;SDS011;55524;51.380;13.372;2022-12-15T04:47:25;22.00;;;9.20;;
68523;SDS011;55524;51.380;13.372;2022-12-15T04:50:09;24.67;;;8.52;;
68523;SDS011;55524;51.380;13.372;2022-12-15T04:52:54;29.90;;;9.68;;
68523;SDS011;55524;51.380;13.372;2022-12-15T04:55:48;29.75;;;11.05;;
68523;SDS011;55524;51.380;13.372;2022-12-15T04:58:33;30.85;;;10.57;;
68523;SDS011;55524;51.380;13.372;2022-12-15T05:01:18;30.45;;;9.82;;
68523;SDS011;55524;51.380;13.372;2022-12-15T05:04:02;28.73;;;10.20;;
68523;SDS011;55524;51.380;13.372;2022-12-15T05:06:47;23.00;;;9.23;;
68523;SDS011;55524;51.380;13.372;2022-12-15T05:09:32;24.20;;;9.27;;
68523;SDS011;55524;51.380;13.372;2022-12-15T05:12:16;25.58;;;9.65;;
68523;SDS011;55524;51.380;13.372;2022-12-15T05:15:01;34.85;;;10.50;;
68523;SDS011;55524;51.380;13.372;2022-12-15T05:17:46;36.92;;;10.77;;
68523;SDS011;55524;51.380;13.372;2022-12-15T05:20:30;30.08;;;11.05;;
68523;SDS011;55524;51.380;13.372;2022-12-15T05:23:15;24.48;;;9.05;;
68523;SDS011;55524;51.380;13.372;2022-12-15T05:26:00;36.40;;;11.07;;
68523;SDS011;55524;51.380;13.372;2022-12-15T05:28:45;32.15;;;10.13;;
68523;SDS011;55524;51.380;13.372;2022-12-15T05:31:30;24.30;;;9.18;;
68523;SDS011;55524;51.380;13.372;2022-12-15T05:34:14;28.58;;;10.13;;
68523;SDS011;55524;51.380;13.372;2022-12-15T05:36:41;30.55;;;9.35;;
68523;SDS011;55524;51.380;13.372;2022-12-15T05:39:07;37.92;;;12.57;;
68523;SDS011;55524;51.380;13.372;2022-12-15T05:41:33;28.15;;;9.63;;
68523;SDS011;55524;51.380;13.372;2022-12-15T05:44:00;23.90;;;9.13;;
68523;SDS011;55524;51.380;13.372;2022-12-15T05:46:26;30.75;;;9.63;;
68523;SDS011;55524;51.380;13.372;2022-12-15T05:48:52;31.55;;;9.98;;
68523;SDS011;55524;51.380;13.372;2022-12-15T05:51:18;28.13;;;9.65;;
68523;SDS011;55524;51.380;13.372;2022-12-15T05:53:48;29.95;;;9.85;;
68523;SDS011;55524;51.380;13.372;2022-12-15T05:56:14;32.77;;;11.00;;
68523;SDS011;55524;51.380;13.372;2022-12-15T05:58:41;26.55;;;9.75;;
68523;SDS011;55524;51.380;13.372;2022-12-15T06:01:08;31.60;;;10.10;;
68523;SDS011;55524;51.380;13.372;2022-12-15T06:03:36;35.63;;;11.85;;
68523;SDS011;55524;51.380;13.372;2022-12-15T06:06:04;30.38;;;9.93;;
68523;SDS011;55524;51.380;13.372;2022-12-15T06:08:40;29.63;;;10.77;;
68523;SDS011;55524;51.380;13.372;2022-12-15T06:11:08;32.88;;;10.55;;
68523;SDS011;55524;51.380;13.372;2022-12-15T06:13:39;24.63;;;8.88;;
68523;SDS011;55524;51.380;13.372;2022-12-15T06:16:08;29.42;;;9.52;;
68523;SDS011;55524;51.380;13.372;2022-12-15T06:18:38;25.25;;;9.77;;
68523;SDS011;55524;51.380;13.372;2022-12-15T06:21:10;27.30;;;9.32;;
68523;SDS011;55524;51.380;13.372;2022-12-15T06:23:38;31.25;;;10.32;;
68523;SDS011;55524;51.380;13.372;2022-12-15T06:28:39;24.40;;;8.30;;
68523;SDS011;55524;51.380;13.372;2022-12-15T06:31:07;29.75;;;8.50;;
68523;SDS011;55524;51.380;13.372;2022-12-15T06:33:34;36.53;;;10.45;;
68523;SDS011;55524;51.380;13.372;2022-12-15T06:36:02;35.90;;;11.60;;
68523;SDS011;55524;51.380;13.372;2022-12-15T06:38:34;28.70;;;8.88;;
68523;SDS011;55524;51.380;13.372;2022-12-15T06:41:01;28.38;;;10.50;;
68523;SDS011;55524;51.380;13.372;2022-12-15T06:43:29;29.85;;;9.80;;
68523;SDS011;55524;51.380;13.372;2022-12-15T06:45:57;31.58;;;9.80;;
68523;SDS011;55524;51.380;13.372;2022-12-15T06:48:24;22.15;;;8.40;;
68523;SDS011;55524;51.380;13.372;2022-12-15T06:50:51;23.40;;;8.88;;
68523;SDS011;55524;51.380;13.372;2022-12-15T06:53:19;26.65;;;9.55;;
68523;SDS011;55524;51.380;13.372;2022-12-15T06:55:48;29.83;;;10.10;;
68523;SDS011;55524;51.380;13.372;2022-12-15T06:58:14;28.48;;;10.35;;
68523;SDS011;55524;51.380;13.372;2022-12-15T07:00:41;31.58;;;10.60;;
68523;SDS011;55524;51.380;13.372;2022-12-15T07:03:11;33.63;;;10.82;;
68523;SDS011;55524;51.380;13.372;2022-12-15T07:05:40;41.50;;;10.85;;
68523;SDS011;55524;51.380;13.372;2022-12-15T07:08:08;27.05;;;9.40;;
68523;SDS011;55524;51.380;13.372;2022-12-15T07:10:39;30.88;;;9.75;;
68523;SDS011;55524;51.380;13.372;2022-12-15T07:13:10;25.27;;;8.32;;
68523;SDS011;55524;51.380;13.372;2022-12-15T07:15:37;24.02;;;9.25;;
68523;SDS011;55524;51.380;13.372;2022-12-15T07:18:04;31.05;;;10.32;;
68523;SDS011;55524;51.380;13.372;2022-12-15T07:20:31;31.05;;;9.77;;
68523;SDS011;55524;51.380;13.372;2022-12-15T07:22:58;29.70;;;11.63;;
68523;SDS011;55524;51.380;13.372;2022-12-15T07:25:32;23.35;;;9.48;;
68523;SDS011;55524;51.380;13.372;2022-12-15T07:28:00;23.90;;;8.63;;
68523;SDS011;55524;51.380;13.372;2022-12-15T07:30:26;30.75;;;10.05;;
68523;SDS011;55524;51.380;13.372;2022-12-15T07:32:52;34.88;;;11.60;;
68523;SDS011;55524;51.380;13.372;2022-12-15T07:35:19;45.50;;;11.82;;
68523;SDS011;55524;51.380;13.372;2022-12-15T07:37:45;35.50;;;12.13;;
68523;SDS011;55524;51.380;13.372;2022-12-15T07:40:12;33.75;;;10.77;;
68523;SDS011;55524;51.380;13.372;2022-12-15T07:42:38;28.58;;;9.27;;
68523;SDS011;55524;51.380;13.372;2022-12-15T07:45:04;28.55;;;8.88;;
68523;SDS011;55524;51.380;13.372;2022-12-15T07:47:31;25.65;;;8.50;;
68523;SDS011;55524;51.380;13.372;2022-12-15T07:49:58;23.58;;;8.95;;
68523;SDS011;55524;51.380;13.372;2022-12-15T07:52:24;37.60;;;9.02;;
68523;SDS011;55524;51.380;13.372;2022-12-15T07:54:50;30.08;;;8.77;;
68523;SDS011;55524;51.380;13.372;2022-12-15T07:57:17;38.53;;;10.63;;
68523;SDS011;55524;51.380;13.372;2022-12-15T07:59:43;37.92;;;11.07;;
68523;SDS011;55524;51.380;13.372;2022-12-15T08:02:10;33.45;;;10.25;;
68523;SDS011;55524;51.380;13.372;2022-12-15T08:04:38;32.17;;;10.02;;
68523;SDS011;55524;51.380;13.372;2022-12-15T08:07:04;26.90;;;9.30;;
68523;SDS011;55524;51.380;13.372;2022-12-15T08:09:31;30.05;;;10.00;;
68523;SDS011;55524;51.380;13.372;2022-12-15T08:11:57;39.45;;;11.70;;
68523;SDS011;55524;51.380;13.372;2022-12-15T08:14:23;34.38;;;10.73;;
68523;SDS011;55524;51.380;13.372;2022-12-15T08:16:50;35.28;;;11.57;;
68523;SDS011;55524;51.380;13.372;2022-12-15T08:19:16;27.95;;;9.70;;
68523;SDS011;55524;51.380;13.372;2022-12-15T08:21:43;26.25;;;9.32;;
68523;SDS011;55524;51.380;13.372;2022-12-15T08:24:25;20.15;;;8.98;;
68523;SDS011;55524;51.380;13.372;2022-12-15T08:26:54;29.15;;;9.95;;
68523;SDS011;55524;51.380;13.372;2022-12-15T08:29:29;32.08;;;9.95;;
68523;SDS011;55524;51.380;13.372;2022-12-15T08:32:05;31.08;;;10.55;;
68523;SDS011;55524;51.380;13.372;2022-12-15T08:34:32;26.75;;;8.77;;
68523;SDS011;55524;51.380;13.372;2022-12-15T08:36:59;22.95;;;9.35;;
68523;SDS011;55524;51.380;13.372;2022-12-15T08:39:25;32.83;;;10.13;;
68523;SDS011;55524;51.380;13.372;2022-12-15T08:41:52;31.67;;;10.75;;
68523;SDS011;55524;51.380;13.372;2022-12-15T08:44:25;26.27;;;9.48;;
68523;SDS011;55524;51.380;13.372;2022-12-15T08:46:54;32.95;;;10.80;;
68523;SDS011;55524;51.380;13.372;2022-12-15T08:49:26;27.77;;;10.35;;
68523;SDS011;55524;51.380;13.372;2022-12-15T08:51:52;35.55;;;11.70;;
68523;SDS011;55524;51.380;13.372;2022-12-15T08:54:19;64.88;;;18.75;;
68523;SDS011;55524;51.380;13.372;2022-12-15T08:56:45;64.75;;;17.80;;
68523;SDS011;55524;51.380;13.372;2022-12-15T08:59:12;63.45;;;18.38;;
68523;SDS011;55524;51.380;13.372;2022-12-15T09:01:38;55.53;;;16.98;;
68523;SDS011;55524;51.380;13.372;2022-12-15T09:04:04;37.92;;;14.00;;
68523;SDS011;55524;51.380;13.372;2022-12-15T09:06:58;33.22;;;11.85;;
68523;SDS011;55524;51.380;13.372;2022-12-15T09:09:24;34.92;;;12.68;;
68523;SDS011;55524;51.380;13.372;2022-12-15T09:11:53;38.42;;;12.20;;
68523;SDS011;55524;51.380;13.372;2022-12-15T09:14:23;46.75;;;14.05;;
68523;SDS011;55524;51.380;13.372;2022-12-15T09:16:49;45.38;;;14.93;;
68523;SDS011;55524;51.380;13.372;2022-12-15T09:19:26;43.63;;;14.15;;
68523;SDS011;55524;51.380;13.372;2022-12-15T09:21:52;44.20;;;15.23;;
68523;SDS011;55524;51.380;13.372;2022-12-15T09:24:18;46.75;;;14.40;;
68523;SDS011;55524;51.380;13.372;2022-12-15T09:26:45;41.35;;;14.82;;
68523;SDS011;55524;51.380;13.372;2022-12-15T09:29:11;43.45;;;14.38;;
68523;SDS011;55524;51.380;13.372;2022-12-15T09:31:38;34.53;;;13.23;;
68523;SDS011;55524;51.380;13.372;2022-12-15T09:34:04;57.22;;;17.55;;
68523;SDS011;55524;51.380;13.372;2022-12-15T09:36:31;55.58;;;17.10;;
68523;SDS011;55524;51.380;13.372;2022-12-15T09:38:57;41.80;;;12.73;;
68523;SDS011;55524;51.380;13.372;2022-12-15T09:41:34;36.13;;;12.90;;
68523;SDS011;55524;51.380;13.372;2022-12-15T09:54:45;47.17;;;13.60;;
68523;SDS011;55524;51.380;13.372;2022-12-15T10:00:05;34.47;;;12.68;;
68523;SDS011;55524;51.380;13.372;2022-12-15T10:02:47;39.97;;;13.10;;
68523;SDS011;55524;51.380;13.372;2022-12-15T10:08:06;38.92;;;13.93;;
68523;SDS011;55524;51.380;13.372;2022-12-15T10:16:02;41.22;;;12.85;;
68523;SDS011;55524;51.380;13.372;2022-12-15T10:21:20;27.67;;;11.15;;
68523;SDS011;55524;51.380;13.372;2022-12-15T10:24:11;29.33;;;10.90;;
68523;SDS011;55524;51.380;13.372;2022-12-15T10:33:15;31.60;;;10.18;;
68523;SDS011;55524;51.380;13.372;2022-12-15T10:35:47;30.27;;;10.23;;
68523;SDS011;55524;51.380;13.372;2022-12-15T10:41:02;24.88;;;9.65;;
68523;SDS011;55524;51.380;13.372;2022-12-15T10:43:36;26.67;;;10.50;;
68523;SDS011;55524;51.380;13.372;2022-12-15T10:48:57;24.63;;;10.25;;
68523;SDS011;55524;51.380;13.372;2022-12-15T10:51:44;28.92;;;10.13;;
68523;SDS011;55524;51.380;13.372;2022-12-15T10:54:35;23.58;;;9.80;;
68523;SDS011;55524;51.380;13.372;2022-12-15T10:57:15;29.27;;;10.75;;
68523;SDS011;55524;51.380;13.372;2022-12-15T10:59:47;27.95;;;10.25;;
68523;SDS011;55524;51.380;13.372;2022-12-15T11:04:55;32.55;;;12.48;;
68523;SDS011;55524;51.380;13.372;2022-12-15T11:15:46;30.10;;;10.25;;
68523;SDS011;55524;51.380;13.372;2022-12-15T11:21:01;28.90;;;11.05;;
68523;SDS011;55524;51.380;13.372;2022-12-15T11:26:57;25.10;;;10.63;;
68523;SDS011;55524;51.380;13.372;2022-12-15T11:32:28;27.25;;;10.10;;
68523;SDS011;55524;51.380;13.372;2022-12-15T11:34:58;29.40;;;11.45;;
68523;SDS011;55524;51.380;13.372;2022-12-15T11:51:14;23.17;;;10.18;;
68523;SDS011;55524;51.380;13.372;2022-12-15T12:04:58;24.42;;;9.57;;
68523;SDS011;55524;51.380;13.372;2022-12-15T12:12:44;22.73;;;9.73;;
68523;SDS011;55524;51.380;13.372;2022-12-15T12:21:25;27.33;;;9.60;;
68523;SDS011;55524;51.380;13.372;2022-12-15T12:24:22;26.48;;;10.43;;
68523;SDS011;55524;51.380;13.372;2022-12-15T12:29:51;27.73;;;10.30;;
68523;SDS011;55524;51.380;13.372;2022-12-15T12:38:03;26.95;;;10.43;;
68523;SDS011;55524;51.380;13.372;2022-12-15T12:43:35;26.50;;;10.40;;
68523;SDS011;55524;51.380;13.372;2022-12-15T12:46:36;24.15;;;9.90;;
68523;SDS011;55524;51.380;13.372;2022-12-15T12:49:18;32.67;;;10.10;;
68523;SDS011;55524;51.380;13.372;2022-12-15T12:52:24;20.98;;;9.15;;
68523;SDS011;55524;51.380;13.372;2022-12-15T12:54:55;27.73;;;10.93;;
68523;SDS011;55524;51.380;13.372;2022-12-15T12:57:55;27.10;;;11.20;;
68523;SDS011;55524;51.380;13.372;2022-12-15T13:00:31;29.70;;;10.65;;
68523;SDS011;55524;51.380;13.372;2022-12-15T13:03:18;24.42;;;10.38;;
68523;SDS011;55524;51.380;13.372;2022-12-15T13:05:54;29.30;;;11.43;;
68523;SDS011;55524;51.380;13.372;2022-12-15T13:08:44;27.90;;;11.05;;
68523;SDS011;55524;51.380;13.372;2022-12-15T13:14:36;22.95;;;9.60;;
68523;SDS011;55524;51.380;13.372;2022-12-15T13:17:40;30.35;;;10.80;;
68523;SDS011;55524;51.380;13.372;2022-12-15T13:20:18;25.15;;;10.73;;
68523;SDS011;55524;51.380;13.372;2022-12-15T13:22:47;21.67;;;10.73;;
68523;SDS011;55524;51.380;13.372;2022-12-15T13:25:36;25.90;;;9.98;;
68523;SDS011;55524;51.380;13.372;2022-12-15T13:28:25;27.02;;;11.00;;
68523;SDS011;55524;51.380;13.372;2022-12-15T13:31:27;24.17;;;9.30;;
68523;SDS011;55524;51.380;13.372;2022-12-15T13:34:11;24.50;;;10.30;;
68523;SDS011;55524;51.380;13.372;2022-12-15T13:36:45;20.52;;;10.15;;
68523;SDS011;55524;51.380;13.372;2022-12-15T13:44:37;29.42;;;10.32;;
68523;SDS011;55524;51.380;13.372;2022-12-15T13:47:12;24.08;;;9.93;;
68523;SDS011;55524;51.380;13.372;2022-12-15T13:54:52;26.73;;;11.05;;
68523;SDS011;55524;51.380;13.372;2022-12-15T13:57:24;25.85;;;11.35;;
68523;SDS011;55524;51.380;13.372;2022-12-15T13:59:53;27.50;;;10.93;;
68523;SDS011;55524;51.380;13.372;2022-12-15T14:02:33;30.80;;;12.63;;
68523;SDS011;55524;51.380;13.372;2022-12-15T14:05:17;27.27;;;11.50;;
68523;SDS011;55524;51.380;13.372;2022-12-15T14:12:49;21.55;;;9.55;;
68523;SDS011;55524;51.380;13.372;2022-12-15T14:15:22;32.95;;;9.50;;
68523;SDS011;55524;51.380;13.372;2022-12-15T14:17:55;24.15;;;9.00;;
68523;SDS011;55524;51.380;13.372;2022-12-15T14:20:43;25.67;;;10.38;;
68523;SDS011;55524;51.380;13.372;2022-12-15T14:23:28;30.58;;;10.35;;
68523;SDS011;55524;51.380;13.372;2022-12-15T14:26:03;29.02;;;12.15;;
68523;SDS011;55524;51.380;13.372;2022-12-15T14:28:41;27.45;;;11.45;;
68523;SDS011;55524;51.380;13.372;2022-12-15T14:31:10;25.38;;;10.20;;
68523;SDS011;55524;51.380;13.372;2022-12-15T14:33:52;27.02;;;11.52;;
68523;SDS011;55524;51.380;13.372;2022-12-15T14:36:35;44.63;;;13.13;;
68523;SDS011;55524;51.380;13.372;2022-12-15T14:39:04;80.15;;;24.10;;
68523;SDS011;55524;51.380;13.372;2022-12-15T14:41:39;76.80;;;23.75;;
68523;SDS011;55524;51.380;13.372;2022-12-15T14:44:40;30.73;;;13.05;;
68523;SDS011;55524;51.380;13.372;2022-12-15T14:47:40;27.60;;;11.98;;
68523;SDS011;55524;51.380;13.372;2022-12-15T14:50:17;55.20;;;19.52;;
68523;SDS011;55524;51.380;13.372;2022-12-15T14:52:54;42.28;;;18.00;;
68523;SDS011;55524;51.380;13.372;2022-12-15T14:55:33;46.78;;;18.27;;
68523;SDS011;55524;51.380;13.372;2022-12-15T14:58:01;37.40;;;16.00;;
68523;SDS011;55524;51.380;13.372;2022-12-15T15:00:51;46.50;;;16.35;;
68523;SDS011;55524;51.380;13.372;2022-12-15T15:03:19;55.05;;;22.58;;
68523;SDS011;55524;51.380;13.372;2022-12-15T15:05:48;47.72;;;20.92;;
68523;SDS011;55524;51.380;13.372;2022-12-15T15:08:28;45.65;;;19.90;;
68523;SDS011;55524;51.380;13.372;2022-12-15T15:11:31;51.03;;;22.60;;
68523;SDS011;55524;51.380;13.372;2022-12-15T15:13:54;48.20;;;20.08;;
68523;SDS011;55524;51.380;13.372;2022-12-15T15:16:27;40.13;;;15.48;;
68523;SDS011;55524;51.380;13.372;2022-12-15T15:18:53;42.22;;;14.80;;
68523;SDS011;55524;51.380;13.372;2022-12-15T15:21:24;36.67;;;13.82;;
68523;SDS011;55524;51.380;13.372;2022-12-15T15:32:52;25.50;;;11.00;;
68523;SDS011;55524;51.380;13.372;2022-12-15T15:35:33;29.85;;;11.70;;
68523;SDS011;55524;51.380;13.372;2022-12-15T15:38:21;27.15;;;10.95;;
68523;SDS011;55524;51.380;13.372;2022-12-15T15:40:54;28.80;;;10.75;;
68523;SDS011;55524;51.380;13.372;2022-12-15T15:43:28;27.58;;;10.32;;
68523;SDS011;55524;51.380;13.372;2022-12-15T15:45:56;33.80;;;10.70;;
68523;SDS011;55524;51.380;13.372;2022-12-15T15:48:50;30.40;;;10.57;;
68523;SDS011;55524;51.380;13.372;2022-12-15T15:51:38;25.58;;;9.55;;
68523;SDS011;55524;51.380;13.372;2022-12-15T15:54:05;26.33;;;10.13;;
68523;SDS011;55524;51.380;13.372;2022-12-15T15:56:37;25.15;;;9.98;;
68523;SDS011;55524;51.380;13.372;2022-12-15T15:59:10;19.77;;;9.00;;
68523;SDS011;55524;51.380;13.372;2022-12-15T16:01:38;20.48;;;8.93;;
68523;SDS011;55524;51.380;13.372;2022-12-15T16:04:05;18.52;;;8.30;;
68523;SDS011;55524;51.380;13.372;2022-12-15T16:06:31;22.10;;;9.18;;
68523;SDS011;55524;51.380;13.372;2022-12-15T16:08:58;23.45;;;9.27;;
68523;SDS011;55524;51.380;13.372;2022-12-15T16:11:25;20.83;;;8.93;;
68523;SDS011;55524;51.380;13.372;2022-12-15T16:13:55;27.30;;;10.18;;
68523;SDS011;55524;51.380;13.372;2022-12-15T16:16:23;27.33;;;10.27;;
68523;SDS011;55524;51.380;13.372;2022-12-15T16:18:52;28.45;;;10.27;;
68523;SDS011;55524;51.380;13.372;2022-12-15T16:21:18;29.17;;;10.75;;
68523;SDS011;55524;51.380;13.372;2022-12-15T16:23:46;27.83;;;10.27;;
68523;SDS011;55524;51.380;13.372;2022-12-15T16:26:14;32.22;;;10.00;;
68523;SDS011;55524;51.380;13.372;2022-12-15T16:28:49;27.13;;;10.95;;
68523;SDS011;55524;51.380;13.372;2022-12-15T16:31:26;31.13;;;11.77;;
68523;SDS011;55524;51.380;13.372;2022-12-15T16:33:53;28.95;;;13.68;;
68523;SDS011;55524;51.380;13.372;2022-12-15T16:36:19;35.92;;;13.60;;
68523;SDS011;55524;51.380;13.372;2022-12-15T16:38:48;44.83;;;16.70;;
68523;SDS011;55524;51.380;13.372;2022-12-15T16:41:24;40.80;;;14.13;;
68523;SDS011;55524;51.380;13.372;2022-12-15T16:44:02;35.03;;;14.68;;
68523;SDS011;55524;51.380;13.372;2022-12-15T16:46:37;39.13;;;14.05;;
68523;SDS011;55524;51.380;13.372;2022-12-15T16:49:13;39.25;;;14.88;;
68523;SDS011;55524;51.380;13.372;2022-12-15T16:51:44;38.13;;;16.30;;
68523;SDS011;55524;51.380;13.372;2022-12-15T16:54:27;38.85;;;14.57;;
68523;SDS011;55524;51.380;13.372;2022-12-15T16:57:04;40.60;;;14.63;;
68523;SDS011;55524;51.380;13.372;2022-12-15T16:59:42;36.50;;;15.10;;
68523;SDS011;55524;51.380;13.372;2022-12-15T17:05:16;32.95;;;13.30;;
68523;SDS011;55524;51.380;13.372;2022-12-15T17:07:48;26.52;;;11.57;;
68523;SDS011;55524;51.380;13.372;2022-12-15T17:10:32;29.03;;;11.70;;
68523;SDS011;55524;51.380;13.372;2022-12-15T17:13:06;46.83;;;15.57;;
68523;SDS011;55524;51.380;13.372;2022-12-15T17:15:40;39.53;;;12.80;;
68523;SDS011;55524;51.380;13.372;2022-12-15T17:18:10;32.30;;;11.75;;
68523;SDS011;55524;51.380;13.372;2022-12-15T17:20:46;35.88;;;13.07;;
68523;SDS011;55524;51.380;13.372;2022-12-15T17:23:14;63.50;;;18.85;;
68523;SDS011;55524;51.380;13.372;2022-12-15T17:25:47;29.50;;;11.70;;
68523;SDS011;55524;51.380;13.372;2022-12-15T17:28:15;34.22;;;13.13;;
68523;SDS011;55524;51.380;13.372;2022-12-15T17:30:48;37.40;;;15.38;;
68523;SDS011;55524;51.380;13.372;2022-12-15T17:33:44;32.45;;;15.23;;
68523;SDS011;55524;51.380;13.372;2022-12-15T17:36:29;31.88;;;13.60;;
68523;SDS011;55524;51.380;13.372;2022-12-15T17:38:56;30.42;;;12.23;;
68523;SDS011;55524;51.380;13.372;2022-12-15T17:41:26;26.88;;;12.13;;
68523;SDS011;55524;51.380;13.372;2022-12-15T17:43:53;26.17;;;11.45;;
68523;SDS011;55524;51.380;13.372;2022-12-15T17:46:22;18.08;;;9.10;;